createdAt,value
2022-11-11T00:00:51.408Z,102497.59
2022-11-11T00:03:36.710Z,102495.81
2022-11-11T00:06:21.960Z,102487.06
2022-11-11T00:09:07.273Z,102490.63
2022-11-11T00:11:52.526Z,102476.53
2022-11-11T00:14:37.833Z,102476.53
2022-11-11T00:17:41.673Z,102492.63
2022-11-11T00:20:45.732Z,102503.28
2022-11-11T00:23:49.981Z,102490.78
2022-11-11T00:26:40.384Z,102500.56
2022-11-11T00:29:26.116Z,102505.91
2022-11-11T00:32:23.383Z,102516.59
2022-11-11T00:35:28.019Z,102523.72
2022-11-11T00:38:34.565Z,102520.31
2022-11-11T00:41:20.699Z,102523.88
2022-11-11T00:44:05.825Z,102523.91
2022-11-11T00:47:09.756Z,102522.97
2022-11-11T00:50:13.892Z,102522.97
2022-11-11T00:52:59.181Z,102524.75
2022-11-11T00:55:44.459Z,102522.97
2022-11-11T00:58:29.855Z,102513.16
2022-11-11T01:01:15.521Z,102512.28
2022-11-11T01:04:00.992Z,102516.72
2022-11-11T01:06:46.152Z,102505.16
2022-11-11T01:09:31.914Z,102497.22
2022-11-11T01:12:17.271Z,102499.94
2022-11-11T01:15:02.670Z,102480.44
2022-11-11T01:17:48.018Z,102485.78
2022-11-11T01:20:33.325Z,102485.75
2022-11-11T01:23:19.060Z,102477.81
2022-11-11T01:26:13.984Z,102476.91
2022-11-11T01:28:59.518Z,102473.41
2022-11-11T01:31:45.065Z,102464.44
2022-11-11T01:34:30.575Z,102470.63
2022-11-11T01:37:15.757Z,102471.56
2022-11-11T01:40:01.192Z,102470.63
2022-11-11T01:42:51.027Z,102478.59
2022-11-11T01:45:58.127Z,102490.25
2022-11-11T01:49:14.729Z,102489.34
2022-11-11T01:52:03.082Z,102489.34
2022-11-11T01:55:09.815Z,102484.03
2022-11-11T01:58:02.710Z,102485.81
2022-11-11T02:00:48.010Z,102482.19
2022-11-11T02:03:36.274Z,102498.13
2022-11-11T02:06:22.168Z,102491.00
2022-11-11T02:09:08.311Z,102496.34
2022-11-11T02:12:13.117Z,102498.13
2022-11-11T02:15:00.415Z,102504.31
2022-11-11T02:17:47.097Z,102510.56
2022-11-11T02:20:36.618Z,102512.28
2022-11-11T02:23:35.969Z,102506.97
2022-11-11T02:26:22.587Z,102514.03
2022-11-11T02:29:15.201Z,102519.44
2022-11-11T02:32:00.838Z,102532.75
2022-11-11T02:34:46.714Z,102534.56
2022-11-11T02:37:32.261Z,102534.56
2022-11-11T02:40:31.245Z,102533.69
2022-11-11T02:43:18.820Z,102518.59
2022-11-11T02:46:06.405Z,102523.06
2022-11-11T02:48:51.887Z,102520.41
2022-11-11T02:51:37.177Z,102512.44
2022-11-11T02:54:22.855Z,102507.13
2022-11-11T02:57:08.437Z,102515.16
2022-11-11T02:59:54.620Z,102515.22
2022-11-11T03:02:40.005Z,102530.34
2022-11-11T03:05:25.762Z,102528.53
2022-11-11T03:08:11.195Z,102526.75
2022-11-11T03:10:56.406Z,102524.09
2022-11-11T03:13:41.588Z,102526.78
2022-11-11T03:16:46.033Z,102517.91
2022-11-11T03:19:31.058Z,102525.94
2022-11-11T03:25:40.149Z,102515.28
2022-11-11T03:28:25.939Z,102521.63
2022-11-11T03:31:11.379Z,102520.66
2022-11-11T03:33:56.589Z,102517.09
2022-11-11T03:37:00.701Z,102518.88
2022-11-11T03:39:46.260Z,102500.22
2022-11-11T03:42:31.569Z,102494.88
2022-11-11T03:45:16.939Z,102503.75
2022-11-11T03:48:02.374Z,102494.00
2022-11-11T03:50:48.561Z,102485.97
2022-11-11T03:53:34.131Z,102483.25
2022-11-11T03:56:19.377Z,102486.78
2022-11-11T03:59:04.680Z,102475.34
2022-11-11T04:02:08.743Z,102476.22
2022-11-11T04:05:12.884Z,102476.28
2022-11-11T04:08:17.034Z,102467.34
2022-11-11T04:11:07.668Z,102475.28
2022-11-11T04:14:12.773Z,102483.31
2022-11-11T04:16:58.329Z,102488.66
2022-11-11T04:20:01.916Z,102483.34
2022-11-11T04:22:48.641Z,102483.38
2022-11-11T04:25:49.178Z,102480.78
2022-11-11T04:28:53.318Z,102490.53
2022-11-11T04:31:58.363Z,102496.72
2022-11-11T04:34:46.084Z,102479.81
2022-11-11T04:37:33.189Z,102476.25
2022-11-11T04:40:37.507Z,102479.75
2022-11-11T04:43:22.772Z,102477.13
2022-11-11T04:46:08.359Z,102487.78
2022-11-11T04:48:53.499Z,102493.09
2022-11-11T04:51:57.440Z,102496.63
2022-11-11T04:55:01.607Z,102498.38
2022-11-11T04:57:48.243Z,102497.59
2022-11-11T05:00:34.276Z,102487.78
2022-11-11T05:03:22.189Z,102496.63
2022-11-11T05:06:26.465Z,102495.72
2022-11-11T05:09:11.930Z,102497.63
2022-11-11T05:11:57.156Z,102508.22
2022-11-11T05:15:00.992Z,102498.47
2022-11-11T05:18:18.413Z,102492.16
2022-11-11T05:21:22.263Z,102487.78
2022-11-11T05:24:26.446Z,102498.41
2022-11-11T05:27:12.013Z,102485.91
2022-11-11T05:29:57.517Z,102498.34
2022-11-11T05:32:43.271Z,102491.19
2022-11-11T05:35:30.010Z,102493.03
2022-11-11T05:38:21.219Z,102509.88
2022-11-11T05:41:08.078Z,102524.19
2022-11-11T05:43:53.207Z,102531.25
2022-11-11T05:46:38.652Z,102542.75
2022-11-11T05:49:25.262Z,102552.53
2022-11-11T05:52:16.572Z,102551.69
2022-11-11T05:55:01.954Z,102557.91
2022-11-11T05:57:47.193Z,102551.63
2022-11-11T06:00:32.331Z,102551.69
2022-11-11T06:03:17.658Z,102545.47
2022-11-11T06:06:03.201Z,102531.22
2022-11-11T06:08:50.259Z,102528.59
2022-11-11T06:11:35.812Z,102534.88
2022-11-11T06:14:21.597Z,102533.03
2022-11-11T06:17:07.080Z,102540.13
2022-11-11T06:19:53.629Z,102544.63
2022-11-11T06:22:57.171Z,102547.25
2022-11-11T06:26:01.392Z,102562.38
2022-11-11T06:28:52.103Z,102567.84
2022-11-11T06:31:37.636Z,102569.63
2022-11-11T06:34:22.878Z,102565.13
2022-11-11T06:37:08.458Z,102562.44
2022-11-11T06:39:53.681Z,102561.50
2022-11-11T06:42:38.945Z,102550.84
2022-11-11T06:45:25.137Z,102564.22
2022-11-11T06:48:12.465Z,102562.44
2022-11-11T06:51:03.782Z,102547.38
2022-11-11T06:53:49.754Z,102541.19
2022-11-11T06:56:35.282Z,102553.56
2022-11-11T06:59:20.577Z,102552.69
2022-11-11T07:02:05.686Z,102557.97
2022-11-11T07:04:50.851Z,102556.13
2022-11-11T07:07:36.255Z,102552.59
2022-11-11T07:10:21.702Z,102556.13
2022-11-11T07:13:07.760Z,102557.94
2022-11-11T07:15:53.380Z,102549.88
2022-11-11T07:18:38.501Z,102564.97
2022-11-11T07:21:23.908Z,102561.44
2022-11-11T07:24:09.210Z,102562.31
2022-11-11T07:26:54.547Z,102557.91
2022-11-11T07:29:39.871Z,102563.19
2022-11-11T07:32:25.318Z,102560.53
2022-11-11T07:35:10.540Z,102551.59
2022-11-11T07:37:55.844Z,102554.31
2022-11-11T07:40:41.231Z,102562.34
2022-11-11T07:43:26.681Z,102565.84
2022-11-11T07:46:11.982Z,102568.59
2022-11-11T07:48:57.544Z,102579.19
2022-11-11T07:51:42.726Z,102590.75
2022-11-11T07:54:27.940Z,102593.38
2022-11-11T07:57:13.224Z,102596.91
2022-11-11T07:59:58.570Z,102610.16
2022-11-11T08:02:48.403Z,102603.91
2022-11-11T08:05:33.576Z,102607.66
2022-11-11T08:08:20.920Z,102615.59
2022-11-11T08:11:06.599Z,102604.84
2022-11-11T08:13:52.289Z,102608.34
2022-11-11T08:16:37.686Z,102610.09
2022-11-11T08:19:23.001Z,102624.25
2022-11-11T08:22:08.348Z,102613.56
2022-11-11T08:25:03.511Z,102625.97
2022-11-11T08:27:50.018Z,102625.16
2022-11-11T08:30:35.670Z,102625.19
2022-11-11T08:33:36.259Z,102627.84
2022-11-11T08:36:23.753Z,102625.09
2022-11-11T08:39:09.414Z,102629.47
2022-11-11T08:41:54.733Z,102634.03
2022-11-11T08:44:40.106Z,102634.81
2022-11-11T08:47:25.413Z,102640.16
2022-11-11T08:50:11.269Z,102637.34
2022-11-11T08:52:57.232Z,102645.25
2022-11-11T08:55:42.513Z,102651.66
2022-11-11T08:58:27.841Z,102655.22
2022-11-11T09:01:14.040Z,102649.75
2022-11-11T09:04:06.834Z,102669.31
2022-11-11T09:07:02.311Z,102670.25
2022-11-11T09:09:47.549Z,102664.75
2022-11-11T09:12:33.260Z,102670.03
2022-11-11T09:15:18.509Z,102663.66
2022-11-11T09:18:03.984Z,102677.09
2022-11-11T09:20:49.182Z,102680.69
2022-11-11T09:23:34.533Z,102680.59
2022-11-11T09:26:19.988Z,102680.56
2022-11-11T09:29:05.323Z,102690.53
2022-11-11T09:31:50.764Z,102689.78
2022-11-11T09:34:36.166Z,102688.78
2022-11-11T09:37:22.226Z,102695.69
2022-11-11T09:40:16.689Z,102694.00
2022-11-11T09:43:14.152Z,102707.38
2022-11-11T09:46:17.449Z,102709.28
2022-11-11T09:49:21.195Z,102713.59
2022-11-11T09:52:32.499Z,102704.63
2022-11-11T09:55:22.616Z,102709.88
2022-11-11T09:58:19.978Z,102710.81
2022-11-11T10:01:12.731Z,102709.72
2022-11-11T10:04:09.040Z,102717.94
2022-11-11T10:06:59.442Z,102705.38
2022-11-11T10:09:52.519Z,102710.47
2022-11-11T10:12:43.859Z,102717.59
2022-11-11T10:15:36.254Z,102712.03
2022-11-11T10:18:39.731Z,102714.53
2022-11-11T10:22:05.744Z,102723.53
2022-11-11T10:24:51.226Z,102719.94
2022-11-11T10:27:37.326Z,102723.47
2022-11-11T10:30:33.542Z,102719.84
2022-11-11T10:33:56.397Z,102724.38
2022-11-11T10:36:48.443Z,102725.09
2022-11-11T10:39:48.573Z,102708.78
2022-11-11T10:42:33.905Z,102708.88
2022-11-11T10:45:54.543Z,102719.38
2022-11-11T10:48:56.187Z,102716.69
2022-11-11T10:51:50.155Z,102715.56
2022-11-11T10:54:44.411Z,102713.53
2022-11-11T10:57:37.520Z,102712.56
2022-11-11T11:00:22.972Z,102713.28
2022-11-11T11:03:24.112Z,102708.06
2022-11-11T11:06:17.037Z,102705.22
2022-11-11T11:09:12.341Z,102705.41
2022-11-11T11:12:07.313Z,102705.22
2022-11-11T11:14:55.428Z,102703.22
2022-11-11T11:17:55.269Z,102696.72
2022-11-11T11:21:01.266Z,102697.47
2022-11-11T11:23:47.218Z,102690.34
2022-11-11T11:26:47.467Z,102690.59
2022-11-11T11:29:38.813Z,102694.25
2022-11-11T11:32:28.834Z,102692.22
2022-11-11T11:35:31.190Z,102694.75
2022-11-11T11:38:16.642Z,102691.97
2022-11-11T11:41:01.920Z,102683.84
2022-11-11T11:43:49.766Z,102682.88
2022-11-11T11:46:39.753Z,102677.53
2022-11-11T11:49:40.532Z,102670.47
2022-11-11T11:52:47.902Z,102665.94
2022-11-11T11:55:37.802Z,102664.09
2022-11-11T11:58:42.430Z,102661.31
2022-11-11T12:02:06.539Z,102667.34
2022-11-11T12:05:00.669Z,102650.59
2022-11-11T12:08:27.810Z,102652.50
2022-11-11T12:11:21.675Z,102657.63
2022-11-11T12:14:24.958Z,102655.91
2022-11-11T12:17:19.636Z,102651.19
2022-11-11T12:20:16.874Z,102660.88
2022-11-11T12:23:23.489Z,102654.66
2022-11-11T12:26:37.729Z,102657.31
2022-11-11T12:29:35.388Z,102646.56
2022-11-11T12:33:05.118Z,102651.00
2022-11-11T12:35:56.311Z,102646.28
2022-11-11T12:38:58.923Z,102640.19
2022-11-11T12:42:21.925Z,102647.44
2022-11-11T12:45:13.555Z,102650.81
2022-11-11T12:48:31.197Z,102656.75
2022-11-11T12:51:34.939Z,102646.28
2022-11-11T12:54:42.319Z,102651.44
2022-11-11T12:57:42.613Z,102653.84
2022-11-11T13:00:28.102Z,102658.47
2022-11-11T13:03:28.702Z,102661.00
2022-11-11T13:06:39.138Z,102648.72
2022-11-11T13:09:24.543Z,102653.88
2022-11-11T13:12:18.878Z,102651.31
2022-11-11T13:15:23.702Z,102650.97
2022-11-11T13:18:16.144Z,102646.47
2022-11-11T13:21:04.940Z,102642.03
2022-11-11T13:23:50.450Z,102643.09
2022-11-11T13:26:39.833Z,102632.56
2022-11-11T13:30:10.215Z,102646.59
2022-11-11T13:33:01.385Z,102647.47
2022-11-11T13:35:52.581Z,102638.47
2022-11-11T13:38:44.242Z,102648.34
2022-11-11T13:41:32.843Z,102637.47
2022-11-11T13:44:24.146Z,102635.72
2022-11-11T13:47:13.389Z,102632.28
2022-11-11T13:50:08.381Z,102636.75
2022-11-11T13:53:30.238Z,102632.28
2022-11-11T13:56:45.255Z,102639.31
2022-11-11T13:59:42.444Z,102630.44
2022-11-11T14:02:35.513Z,102644.63
2022-11-11T14:05:23.568Z,102627.63
2022-11-11T14:08:10.309Z,102641.97
2022-11-11T14:10:58.808Z,102635.78
2022-11-11T14:13:44.434Z,102631.38
2022-11-11T14:16:35.923Z,102631.34
2022-11-11T14:19:21.412Z,102634.91
2022-11-11T14:22:37.053Z,102634.94
2022-11-11T14:25:25.890Z,102640.66
2022-11-11T14:28:30.197Z,102644.81
2022-11-11T14:31:18.336Z,102640.28
2022-11-11T14:34:33.119Z,102643.91
2022-11-11T14:37:24.629Z,102648.72
2022-11-11T14:40:23.454Z,102647.28
2022-11-11T14:43:41.010Z,102648.38
2022-11-11T14:46:26.204Z,102640.53
2022-11-11T14:49:11.485Z,102658.28
2022-11-11T14:52:01.741Z,102648.78
2022-11-11T14:54:53.647Z,102657.56
2022-11-11T14:57:49.563Z,102670.16
2022-11-11T15:00:50.872Z,102667.41
2022-11-11T15:03:39.978Z,102659.25
2022-11-11T15:06:31.116Z,102661.28
2022-11-11T15:09:50.044Z,102663.97
2022-11-11T15:12:57.421Z,102666.69
2022-11-11T15:15:53.413Z,102665.94
2022-11-11T15:19:06.898Z,102669.38
2022-11-11T15:22:03.466Z,102665.09
2022-11-11T15:25:07.415Z,102670.66
2022-11-11T15:28:08.628Z,102668.06
2022-11-11T15:31:06.431Z,102665.50
2022-11-11T15:34:38.127Z,102671.75
2022-11-11T15:37:26.158Z,102673.72
2022-11-11T15:40:20.395Z,102664.75
2022-11-11T15:43:06.250Z,102667.56
2022-11-11T15:46:00.484Z,102666.75
2022-11-11T15:48:46.511Z,102667.75
2022-11-11T15:51:35.870Z,102673.19
2022-11-11T15:54:26.509Z,102681.31
2022-11-11T15:57:32.271Z,102681.44
2022-11-11T16:00:23.785Z,102682.34
2022-11-11T16:03:21.201Z,102686.00
2022-11-11T16:06:11.742Z,102685.19
2022-11-11T16:09:00.412Z,102683.56
2022-11-11T16:11:45.922Z,102691.56
2022-11-11T16:14:37.509Z,102685.34
2022-11-11T16:17:26.060Z,102684.66
2022-11-11T16:20:16.381Z,102683.69
2022-11-11T16:23:03.033Z,102683.84
2022-11-11T16:25:53.421Z,102690.13
2022-11-11T16:28:43.160Z,102685.78
2022-11-11T16:31:38.265Z,102691.16
2022-11-11T16:34:29.559Z,102687.72
2022-11-11T16:37:17.430Z,102682.38
2022-11-11T16:40:30.987Z,102688.66
2022-11-11T16:43:21.876Z,102685.19
2022-11-11T16:46:10.147Z,102683.44
2022-11-11T16:48:55.579Z,102687.97
2022-11-11T16:51:44.320Z,102695.19
2022-11-11T16:54:32.606Z,102691.63
2022-11-11T16:57:26.666Z,102691.66
2022-11-11T17:00:18.457Z,102689.97
2022-11-11T17:03:25.982Z,102680.22
2022-11-11T17:06:12.006Z,102691.81
2022-11-11T17:08:57.446Z,102695.41
2022-11-11T17:11:45.854Z,102695.41
2022-11-11T17:14:34.264Z,102695.47
2022-11-11T17:17:21.672Z,102699.00
2022-11-11T17:20:16.552Z,102698.19
2022-11-11T17:23:06.463Z,102695.53
2022-11-11T17:25:56.836Z,102710.69
2022-11-11T17:28:42.207Z,102703.59
2022-11-11T17:31:27.505Z,102704.50
2022-11-11T17:34:12.891Z,102704.53
2022-11-11T17:36:58.570Z,102703.66
2022-11-11T17:39:45.251Z,102702.72
2022-11-11T17:42:30.965Z,102710.78
2022-11-11T17:45:16.833Z,102697.44
2022-11-11T17:48:03.334Z,102707.22
2022-11-11T17:50:48.600Z,102704.59
2022-11-11T17:53:37.019Z,102704.59
2022-11-11T17:56:22.406Z,102703.75
2022-11-11T17:59:08.578Z,102706.41
2022-11-11T18:01:54.307Z,102709.09
2022-11-11T18:04:40.635Z,102719.78
2022-11-11T18:07:25.969Z,102710.00
2022-11-11T18:10:12.559Z,102718.00
2022-11-11T18:12:58.504Z,102719.81
2022-11-11T18:15:44.161Z,102725.13
2022-11-11T18:18:30.655Z,102727.81
2022-11-11T18:21:16.423Z,102726.94
2022-11-11T18:24:04.329Z,102720.69
2022-11-11T18:26:49.774Z,102731.34
2022-11-11T18:29:36.030Z,102728.72
2022-11-11T18:32:21.805Z,102731.38
2022-11-11T18:35:08.442Z,102725.16
2022-11-11T18:37:54.235Z,102728.72
2022-11-11T18:40:40.005Z,102737.59
2022-11-11T18:43:25.868Z,102732.28
2022-11-11T18:46:14.095Z,102743.84
2022-11-11T18:49:01.701Z,102741.16
2022-11-11T18:51:47.311Z,102748.25
2022-11-11T18:54:33.729Z,102745.63
2022-11-11T18:57:19.413Z,102744.69
2022-11-11T19:00:07.848Z,102742.03
2022-11-11T19:02:53.276Z,102748.28
2022-11-11T19:05:38.649Z,102750.03
2022-11-11T19:08:24.189Z,102758.91
2022-11-11T19:11:09.908Z,102748.25
2022-11-11T19:13:56.107Z,102758.88
2022-11-11T19:16:42.216Z,102758.88
2022-11-11T19:19:27.372Z,102749.09
2022-11-11T19:22:12.542Z,102773.03
2022-11-11T19:24:58.000Z,102765.94
2022-11-11T19:27:43.285Z,102773.91
2022-11-11T19:30:28.823Z,102775.66
2022-11-11T19:33:15.056Z,102778.31
2022-11-11T19:36:02.482Z,102779.25
2022-11-11T19:38:48.652Z,102778.28
2022-11-11T19:41:34.210Z,102784.50
2022-11-11T19:44:19.502Z,102780.09
2022-11-11T19:47:05.440Z,102789.81
2022-11-11T19:49:50.776Z,102796.91
2022-11-11T19:52:36.221Z,102790.72
2022-11-11T19:55:21.470Z,102787.09
2022-11-11T19:58:06.808Z,102787.06
2022-11-11T20:00:52.615Z,102795.09
2022-11-11T20:03:38.469Z,102789.75
2022-11-11T20:06:28.926Z,102794.19
2022-11-11T20:09:15.178Z,102799.47
2022-11-11T20:12:00.606Z,102803.88
2022-11-11T20:14:46.147Z,102805.66
2022-11-11T20:17:31.388Z,102807.44
2022-11-11T20:20:16.932Z,102809.16
2022-11-11T20:23:06.492Z,102817.09
2022-11-11T20:25:53.016Z,102810.91
2022-11-11T20:28:39.140Z,102812.66
2022-11-11T20:31:25.412Z,102817.94
2022-11-11T20:34:10.913Z,102822.31
2022-11-11T20:36:56.458Z,102821.50
2022-11-11T20:39:41.669Z,102820.56
2022-11-11T20:42:27.012Z,102822.28
2022-11-11T20:45:12.800Z,102826.69
2022-11-11T20:47:58.545Z,102837.25
2022-11-11T20:50:44.178Z,102833.78
2022-11-11T20:53:30.336Z,102826.72
2022-11-11T20:56:22.215Z,102828.41
2022-11-11T20:59:09.354Z,102828.41
2022-11-11T21:01:55.451Z,102827.41
2022-11-11T21:04:40.663Z,102829.25
2022-11-11T21:07:26.166Z,102833.59
2022-11-11T21:10:11.619Z,102830.97
2022-11-11T21:12:56.911Z,102838.94
2022-11-11T21:15:42.309Z,102842.47
2022-11-11T21:18:27.990Z,102838.84
2022-11-11T21:21:22.523Z,102836.16
2022-11-11T21:24:08.657Z,102830.75
2022-11-11T21:26:54.245Z,102831.59
2022-11-11T21:29:39.690Z,102825.41
2022-11-11T21:32:25.822Z,102836.91
2022-11-11T21:35:11.368Z,102830.72
2022-11-11T21:37:56.774Z,102843.91
2022-11-11T21:40:42.078Z,102836.81
2022-11-11T21:43:27.179Z,102838.59
2022-11-11T21:46:18.271Z,102836.81
2022-11-11T21:49:04.637Z,102847.44
2022-11-11T21:51:50.946Z,102841.19
2022-11-11T21:54:36.371Z,102842.00
2022-11-11T21:57:21.640Z,102842.91
2022-11-11T22:00:07.514Z,102844.72
2022-11-11T22:02:53.024Z,102840.19
2022-11-11T22:05:38.538Z,102844.50
2022-11-11T22:08:24.119Z,102845.38
2022-11-11T22:11:15.480Z,102851.56
2022-11-11T22:14:02.278Z,102848.03
2022-11-11T22:16:47.925Z,102861.38
2022-11-11T22:19:33.488Z,102850.63
2022-11-11T22:22:18.737Z,102855.06
2022-11-11T22:25:04.165Z,102860.34
2022-11-11T22:27:49.386Z,102861.25
2022-11-11T22:30:34.788Z,102853.25
2022-11-11T22:33:20.345Z,102852.31
2022-11-11T22:36:12.921Z,102854.09
2022-11-11T22:38:59.670Z,102856.75
2022-11-11T22:41:45.004Z,102853.97
2022-11-11T22:44:30.908Z,102860.94
2022-11-11T22:47:16.186Z,102856.56
2022-11-11T22:50:01.563Z,102856.53
2022-11-11T22:52:50.297Z,102863.59
2022-11-11T22:55:35.379Z,102871.59
2022-11-11T22:58:20.794Z,102864.44
2022-11-11T23:01:09.308Z,102869.81
2022-11-11T23:03:55.919Z,102874.09
2022-11-11T23:06:42.434Z,102860.00
2022-11-11T23:09:28.234Z,102859.09
2022-11-11T23:12:13.400Z,102861.66
2022-11-11T23:14:58.527Z,102863.59
2022-11-11T23:17:44.080Z,102863.56
2022-11-11T23:20:29.661Z,102865.25
2022-11-11T23:23:15.289Z,102851.94
2022-11-11T23:26:06.015Z,102862.41
2022-11-11T23:28:51.714Z,102861.47
2022-11-11T23:31:37.119Z,102859.78
2022-11-11T23:34:22.488Z,102857.00
2022-11-11T23:37:08.282Z,102863.16
2022-11-11T23:39:53.602Z,102859.63
2022-11-11T23:42:38.904Z,102860.38
2022-11-11T23:45:26.945Z,102865.78
2022-11-11T23:48:12.202Z,102857.84
2022-11-11T23:50:57.774Z,102860.47
2022-11-11T23:53:43.389Z,102864.03
2022-11-11T23:56:28.576Z,102861.28
2022-11-11T23:59:13.859Z,102861.25
